Decoded Metar for SBEG (MANAUS in BRAZIL) (IATA:MAO) | Meteo·Mobile Aviation Weather
aviador You're here:

SBEG Decoded Metar

MANAUS in BRAZIL
Report Time2018-12-17 14:00:00
UTC Time2018-12-17 14:33:15
Flight Rules vfr VFR
Wind350° at 07 kt
W.Decomp.*RWY 28: 0.9 kt HW 6.9 kt RCW
W.Rank350° ranks 13
Current wind is above 350° avg. (3.1)
Visibility9999 m
Phenomena:N/A
Clouds:Scattered 020 Hf
Expected CloudBase > 3,200 ft AGL from Temp-Dew spread
CeilingNone
Temp30°C (ISA +15)
Dew Point22°C (62% RH)
Heat Index33.2°C
QNH1015 hPa
Density Alt2,008 ft
Elevation7 ft
Report Wrong Elevation
Raw Report
METAR SBEG 171400Z 35007KT 9999 SCT020 30/22 Q1015=

Extra information for SBEG:More info

Metar Taf Metar & Taf Last 4 Metars F.Rules Stats Wind Profile Meteogram Temp Stats Airport Information Weather charts Add Link Nearby VenuesMetar ALERT Operation Metar Decoded Social comments